Tusayan, Arizona
Current Conditions -  °F | °C
As of 9:54 PM on Friday 28 Nov 2014 (Local Time) from KGCN Reporting Station
Clear Clear  
Wind Chill: 21°   Ceiling: Unl
Heat Index: 21°   Visibility: 10mi
Dew Point:   Wind: 0mph
Humidity: 44%   Direction: NA
Pressure: 30.11"   Gusts: NA
Location:  36.0547°N, 112.138°W
Report Text: KGCN 290454Z 00000KT 10SM CLR M06/M17 A3011 RMK AO2 SLP177 T10611167
Loading
Personal Weather Stations






























Interactive Weather Map New forecast layout! Learn more

10-Day Weather Forecast

Advertisements
Track Severe Weather on mobile